Time;durP1;ratioP1;P1;durP2;ratioP2;P2;SDS_P1;SDS_P2;PMS_P1;PMS_P2;Temp;Humidity;BMP_temperature;BMP_pressure;BME280_temperature;BME280_humidity;BME280_pressure;Samples;Min_cycle;Max_cycle;Signal;HPM_P1;HPM_P2
2023/05/20 00:00:08;;;;;;;1.60;1.50;;;18.40;56.30;;;;;;5073402;28;20339;-62
2023/05/20 00:02:34;;;;;;;1.33;1.20;;;18.40;56.30;;;;;;5074299;28;20175;-62
2023/05/20 00:04:59;;;;;;;2.42;1.88;;;18.40;56.30;;;;;;5074196;28;20180;-62
2023/05/20 00:07:25;;;;;;;1.88;1.58;;;18.40;56.40;;;;;;5073179;28;20170;-62
2023/05/20 00:09:50;;;;;;;1.65;1.33;;;18.40;56.30;;;;;;5074034;28;20539;-62
2023/05/20 00:12:16;;;;;;;2.10;1.67;;;18.50;56.60;;;;;;5073857;28;20262;-61
2023/05/20 00:14:42;;;;;;;1.40;1.30;;;18.40;56.30;;;;;;5073504;28;20203;-62
2023/05/20 00:17:07;;;;;;;1.73;1.35;;;18.50;56.40;;;;;;5073775;28;20221;-62
2023/05/20 00:19:33;;;;;;;2.65;1.70;;;18.50;56.40;;;;;;5073016;28;20304;-61
2023/05/20 00:21:58;;;;;;;1.48;1.38;;;18.40;56.40;;;;;;5073818;28;20261;-62
2023/05/20 00:24:24;;;;;;;2.00;1.85;;;18.50;56.50;;;;;;5073651;28;21040;-61
2023/05/20 00:26:49;;;;;;;2.25;2.05;;;18.40;56.40;;;;;;5072936;28;20186;-62
2023/05/20 00:29:15;;;;;;;3.83;2.05;;;18.40;56.40;;;;;;5073570;28;20261;-62
2023/05/20 00:31:40;;;;;;;1.67;1.58;;;18.40;56.40;;;;;;5073852;28;20706;-63
2023/05/20 00:34:06;;;;;;;3.53;1.50;;;18.40;56.40;;;;;;5072534;28;20521;-63
2023/05/20 00:36:34;;;;;;;1.42;1.33;;;18.40;56.40;;;;;;5073489;28;20226;-61
2023/05/20 00:38:59;;;;;;;1.60;1.50;;;18.40;56.50;;;;;;5073575;28;20181;-62
2023/05/20 00:41:25;;;;;;;1.95;1.50;;;18.40;56.50;;;;;;5072460;28;20178;-61
2023/05/20 00:43:54;;;;;;;2.78;1.70;;;18.40;56.50;;;;;;5073598;28;20171;-62
2023/05/20 00:46:20;;;;;;;2.28;1.60;;;18.40;56.50;;;;;;5073169;28;20174;-62
2023/05/20 00:48:45;;;;;;;2.55;1.58;;;18.40;56.50;;;;;;5071518;28;20607;-62
2023/05/20 00:51:12;;;;;;;2.40;1.67;;;18.50;56.50;;;;;;5073118;28;20262;-62
2023/05/20 00:53:37;;;;;;;5.75;1.58;;;18.40;56.50;;;;;;5073474;28;20178;-61
2023/05/20 00:56:03;;;;;;;2.13;1.50;;;18.40;56.50;;;;;;5072399;28;20629;-61
2023/05/20 00:58:29;;;;;;;1.67;1.30;;;18.40;56.50;;;;;;5072995;28;20247;-61
2023/05/20 01:00:55;;;;;;;2.00;1.70;;;18.30;56.50;;;;;;5071721;28;20728;-62
2023/05/20 01:03:21;;;;;;;1.75;1.40;;;18.30;56.50;;;;;;5070915;28;20534;-62
2023/05/20 01:05:46;;;;;;;2.20;1.70;;;18.40;56.60;;;;;;5071913;28;20633;-62
2023/05/20 01:08:12;;;;;;;2.67;1.67;;;18.30;56.60;;;;;;5072826;28;20170;-62
2023/05/20 01:10:40;;;;;;;1.92;1.75;;;18.30;56.50;;;;;;5072064;28;20178;-60
2023/05/20 01:13:08;;;;;;;3.17;1.80;;;18.30;56.60;;;;;;5071606;28;20241;-61
2023/05/20 01:15:33;;;;;;;2.13;1.90;;;18.30;56.60;;;;;;5071677;28;20659;-60
2023/05/20 01:18:00;;;;;;;1.85;1.70;;;18.30;56.60;;;;;;5070931;28;20206;-62
2023/05/20 01:20:27;;;;;;;3.33;1.75;;;18.30;56.60;;;;;;5071360;28;20202;-61
2023/05/20 01:22:53;;;;;;;2.67;1.70;;;18.30;56.60;;;;;;5072278;28;20200;-61
2023/05/20 01:25:18;;;;;;;2.28;1.75;;;18.30;56.60;;;;;;5072521;28;20186;-61
2023/05/20 01:27:44;;;;;;;2.10;1.50;;;18.30;56.60;;;;;;5072786;28;20257;-61
2023/05/20 01:30:10;;;;;;;2.28;1.83;;;18.30;56.70;;;;;;5070707;28;20185;-62
2023/05/20 01:32:41;;;;;;;2.33;1.77;;;18.30;56.70;;;;;;5072861;28;20276;-63
2023/05/20 01:35:06;;;;;;;3.38;1.80;;;18.30;56.70;;;;;;5071195;28;20233;-63
2023/05/20 01:37:33;;;;;;;1.65;1.55;;;18.30;56.70;;;;;;5071909;28;20174;-62
2023/05/20 01:39:58;;;;;;;1.75;1.55;;;18.30;56.70;;;;;;5071389;28;20692;-62
2023/05/20 01:42:25;;;;;;;1.85;1.55;;;18.30;56.60;;;;;;5072572;28;20174;-61
2023/05/20 01:44:51;;;;;;;3.15;1.90;;;18.30;56.60;;;;;;5070829;28;20174;-62
2023/05/20 01:47:16;;;;;;;1.77;1.48;;;18.30;56.70;;;;;;5071182;28;20201;-62
2023/05/20 01:49:42;;;;;;;2.90;1.80;;;18.30;56.70;;;;;;5072560;28;20186;-62
2023/05/20 01:52:07;;;;;;;2.40;1.90;;;18.30;56.70;;;;;;5071393;28;20178;-61
2023/05/20 01:54:33;;;;;;;2.63;1.65;;;18.30;56.70;;;;;;5071223;28;20523;-61
2023/05/20 01:56:58;;;;;;;1.90;1.80;;;18.30;56.80;;;;;;5072766;28;20202;-61
2023/05/20 01:59:24;;;;;;;2.03;1.50;;;18.20;56.70;;;;;;5071535;28;20210;-62
2023/05/20 02:01:49;;;;;;;2.17;1.58;;;18.30;56.80;;;;;;5072408;28;20692;-62
2023/05/20 02:04:17;;;;;;;1.98;1.60;;;18.30;56.80;;;;;;5072267;28;20245;-62
2023/05/20 02:06:43;;;;;;;2.55;1.50;;;18.30;56.80;;;;;;5071645;28;20182;-62
2023/05/20 02:09:08;;;;;;;2.38;1.60;;;18.30;56.80;;;;;;5072070;28;20181;-62
2023/05/20 02:11:35;;;;;;;2.58;1.60;;;18.30;56.80;;;;;;5072346;28;20640;-61
2023/05/20 02:14:00;;;;;;;1.60;1.40;;;18.20;56.70;;;;;;5075567;28;20365;-61
2023/05/20 02:16:26;;;;;;;2.50;1.75;;;18.30;56.80;;;;;;5075985;28;20257;-61
2023/05/20 02:18:51;;;;;;;1.77;1.67;;;18.20;56.70;;;;;;5076183;28;20261;-62
2023/05/20 02:21:17;;;;;;;2.28;1.48;;;18.20;56.80;;;;;;5075147;28;20221;-62
2023/05/20 02:23:42;;;;;;;2.05;1.90;;;18.20;56.80;;;;;;5076092;28;20173;-61
2023/05/20 02:26:08;;;;;;;1.48;1.38;;;18.20;56.80;;;;;;5075226;28;20174;-63
2023/05/20 02:28:33;;;;;;;2.00;1.80;;;18.20;56.90;;;;;;5076116;28;20170;-61
2023/05/20 02:30:59;;;;;;;3.10;1.70;;;18.20;56.80;;;;;;5076013;28;20182;-61
2023/05/20 02:33:27;;;;;;;2.38;1.60;;;18.20;56.80;;;;;;5074982;28;20174;-65
2023/05/20 02:35:53;;;;;;;3.13;1.48;;;18.20;56.80;;;;;;5075518;28;20226;-61
2023/05/20 02:38:18;;;;;;;2.40;1.83;;;18.20;56.80;;;;;;5075651;28;20248;-63
2023/05/20 02:40:44;;;;;;;1.75;1.55;;;18.20;56.90;;;;;;5074920;28;20742;-61
2023/05/20 02:43:09;;;;;;;1.67;1.55;;;18.20;56.80;;;;;;5075366;28;20220;-63
2023/05/20 02:45:35;;;;;;;2.85;1.65;;;18.20;56.80;;;;;;5075802;28;20228;-63
2023/05/20 02:48:00;;;;;;;1.98;1.40;;;18.20;56.90;;;;;;5075023;28;20166;-64
2023/05/20 02:50:26;;;;;;;1.60;1.50;;;18.30;56.90;;;;;;5075244;28;20542;-63
2023/05/20 02:52:51;;;;;;;1.73;1.60;;;18.20;56.90;;;;;;5075577;28;20213;-63
2023/05/20 02:55:17;;;;;;;2.42;1.70;;;18.20;56.90;;;;;;5074713;28;20171;-63
2023/05/20 02:57:43;;;;;;;3.17;1.55;;;18.20;56.80;;;;;;5075577;28;20174;-63
2023/05/20 03:00:15;;;;;;;2.22;1.67;;;18.20;56.90;;;;;;5075138;28;20674;-64
2023/05/20 03:02:40;;;;;;;2.05;1.83;;;18.20;56.90;;;;;;5074690;28;20516;-63
2023/05/20 03:05:06;;;;;;;3.72;1.88;;;18.20;56.90;;;;;;5074988;28;20258;-63
2023/05/20 03:07:35;;;;;;;1.80;1.45;;;18.20;56.90;;;;;;5075429;28;20186;-62
2023/05/20 03:10:01;;;;;;;2.28;1.83;;;18.20;56.90;;;;;;5074655;28;20177;-63
2023/05/20 03:12:27;;;;;;;1.77;1.67;;;18.20;56.90;;;;;;5075150;28;20213;-62
2023/05/20 03:14:54;;;;;;;2.40;1.70;;;18.20;56.90;;;;;;5075170;28;20202;-62
2023/05/20 03:17:20;;;;;;;2.22;1.55;;;18.20;56.90;;;;;;5074209;28;20178;-63
2023/05/20 03:19:46;;;;;;;1.90;1.80;;;18.20;56.90;;;;;;5074915;28;20206;-63
2023/05/20 03:22:11;;;;;;;1.90;1.80;;;18.20;56.90;;;;;;5073368;28;20637;-63
2023/05/20 03:24:37;;;;;;;2.17;1.83;;;18.10;56.90;;;;;;5074246;28;20171;-62
2023/05/20 03:27:02;;;;;;;1.77;1.67;;;18.10;57.50;;;;;;5074927;28;20181;-63
2023/05/20 03:29:28;;;;;;;2.05;1.80;;;18.10;56.90;;;;;;5074192;28;20185;-63
2023/05/20 03:31:54;;;;;;;1.98;1.83;;;18.20;57.00;;;;;;5074959;28;20181;-64
2023/05/20 03:34:19;;;;;;;1.50;1.40;;;18.10;56.90;;;;;;5074227;28;20279;-64
2023/05/20 03:36:45;;;;;;;2.65;1.75;;;18.10;57.00;;;;;;5074153;28;20178;-63
2023/05/20 03:39:11;;;;;;;1.83;1.60;;;18.10;57.00;;;;;;5074428;28;20665;-63
2023/05/20 03:41:36;;;;;;;1.75;1.65;;;18.10;56.90;;;;;;5074792;28;20253;-63
2023/05/20 03:44:02;;;;;;;1.90;1.70;;;18.10;56.90;;;;;;5073859;28;20171;-63
2023/05/20 03:46:29;;;;;;;1.83;1.73;;;18.10;57.00;;;;;;5074371;28;20181;-64
2023/05/20 03:48:55;;;;;;;1.88;1.60;;;18.10;57.00;;;;;;5074458;28;20242;-64
2023/05/20 03:51:20;;;;;;;2.03;1.60;;;18.10;57.00;;;;;;5073650;28;20174;-63
2023/05/20 03:53:46;;;;;;;1.50;1.40;;;18.10;57.00;;;;;;5074492;28;20171;-63
2023/05/20 03:56:11;;;;;;;2.42;1.63;;;18.10;57.00;;;;;;5074277;28;20178;-62
2023/05/20 03:58:37;;;;;;;1.88;1.77;;;18.10;57.00;;;;;;5073465;28;20544;-63
2023/05/20 04:01:03;;;;;;;2.00;1.60;;;18.10;57.00;;;;;;5074286;28;20228;-63
2023/05/20 04:03:28;;;;;;;1.65;1.55;;;18.10;57.00;;;;;;5074104;28;20171;-63
2023/05/20 04:05:54;;;;;;;1.75;1.65;;;18.10;57.00;;;;;;5073654;28;20233;-64
2023/05/20 04:08:20;;;;;;;6.38;2.03;;;18.10;57.00;;;;;;5074058;28;20566;-63
2023/05/20 04:10:46;;;;;;;1.40;1.30;;;18.10;57.00;;;;;;5074287;28;20179;-63
2023/05/20 04:13:12;;;;;;;2.00;1.58;;;18.10;56.90;;;;;;5073027;28;20197;-62
2023/05/20 04:15:37;;;;;;;1.67;1.58;;;18.10;56.90;;;;;;5074249;28;20170;-63
2023/05/20 04:18:05;;;;;;;2.15;1.75;;;18.10;56.90;;;;;;5073757;28;20174;-63
2023/05/20 04:20:31;;;;;;;1.45;1.35;;;18.10;56.90;;;;;;5073200;28;20210;-62
2023/05/20 04:22:57;;;;;;;1.60;1.50;;;18.10;56.90;;;;;;5074024;28;20224;-63
2023/05/20 04:25:22;;;;;;;2.13;1.90;;;18.10;56.90;;;;;;5073740;28;20170;-62
2023/05/20 04:27:48;;;;;;;2.28;1.40;;;18.10;56.90;;;;;;5073276;28;20167;-64
2023/05/20 04:30:16;;;;;;;2.42;1.67;;;18.10;56.90;;;;;;5073625;28;20170;-65
2023/05/20 04:32:42;;;;;;;2.58;1.58;;;18.10;56.90;;;;;;5073012;28;20251;-64
2023/05/20 04:35:10;;;;;;;1.80;1.65;;;18.10;56.80;;;;;;5072711;28;20272;-65
2023/05/20 04:37:37;;;;;;;1.67;1.55;;;18.10;56.90;;;;;;5073589;28;20204;-63
2023/05/20 04:40:05;;;;;;;2.55;1.88;;;18.10;56.90;;;;;;5072942;28;20206;-64
2023/05/20 04:42:34;;;;;;;2.13;1.92;;;18.10;56.90;;;;;;5073401;28;20540;-63
2023/05/20 04:45:04;;;;;;;1.33;1.30;;;18.10;56.90;;;;;;5073331;28;20257;-63
2023/05/20 04:47:30;;;;;;;1.85;1.65;;;18.10;56.90;;;;;;5072941;28;20182;-63
2023/05/20 04:49:59;;;;;;;2.10;1.90;;;18.10;57.00;;;;;;5073489;28;20178;-64
2023/05/20 04:52:24;;;;;;;2.95;1.90;;;18.10;56.90;;;;;;5073168;28;20189;-63
2023/05/20 04:54:50;;;;;;;1.80;1.70;;;18.10;56.90;;;;;;5072552;28;20171;-63
2023/05/20 04:57:19;;;;;;;2.45;1.70;;;18.20;56.90;;;;;;5073020;28;20178;-63
2023/05/20 04:59:48;;;;;;;1.40;1.30;;;18.10;57.50;;;;;;5073179;28;20225;-63
2023/05/20 05:02:14;;;;;;;2.50;1.80;;;18.10;56.90;;;;;;5072257;28;20536;-63
2023/05/20 05:04:39;;;;;;;2.75;1.77;;;18.10;56.90;;;;;;5073121;28;20629;-63
2023/05/20 05:07:05;;;;;;;1.63;1.45;;;18.20;56.90;;;;;;5072807;28;20181;-63
2023/05/20 05:09:30;;;;;;;1.92;1.73;;;18.20;57.10;;;;;;5072560;28;20261;-62
2023/05/20 05:11:56;;;;;;;2.33;1.52;;;18.20;56.90;;;;;;5073142;28;20189;-63
2023/05/20 05:14:22;;;;;;;2.33;2.00;;;18.20;56.90;;;;;;5072810;28;20189;-63
2023/05/20 05:16:48;;;;;;;1.67;1.50;;;18.20;56.90;;;;;;5072460;28;20174;-63
2023/05/20 05:19:14;;;;;;;1.80;1.70;;;18.20;56.90;;;;;;5072550;28;20186;-62
2023/05/20 05:21:39;;;;;;;2.25;1.67;;;18.20;56.90;;;;;;5073036;28;20254;-62
2023/05/20 05:24:05;;;;;;;3.17;1.40;;;18.20;56.90;;;;;;5071931;28;20171;-62
2023/05/20 05:26:30;;;;;;;2.17;1.70;;;18.20;56.90;;;;;;5072914;28;20178;-62
2023/05/20 05:28:56;;;;;;;1.77;1.67;;;18.20;56.90;;;;;;5072100;28;20585;-63
2023/05/20 05:31:22;;;;;;;1.50;1.40;;;18.20;56.80;;;;;;5072650;28;20647;-62
2023/05/20 05:33:47;;;;;;;1.70;1.60;;;18.20;56.80;;;;;;5072904;28;20503;-64
2023/05/20 05:36:13;;;;;;;2.70;2.10;;;18.20;56.80;;;;;;5071651;28;20316;-64
2023/05/20 05:38:38;;;;;;;1.88;1.45;;;18.20;56.80;;;;;;5072880;28;20262;-63
2023/05/20 05:41:04;;;;;;;2.40;1.67;;;18.20;56.80;;;;;;5072750;28;20238;-64
2023/05/20 05:43:30;;;;;;;2.58;1.73;;;18.20;56.90;;;;;;5070546;28;20194;-63
2023/05/20 05:45:55;;;;;;;2.25;1.50;;;18.20;56.80;;;;;;5072896;28;20178;-63
2023/05/20 05:48:22;;;;;;;2.17;1.80;;;18.20;56.80;;;;;;5075351;28;20174;-63
2023/05/20 05:50:47;;;;;;;1.63;1.52;;;18.20;56.80;;;;;;5076084;28;20205;-62
2023/05/20 05:53:13;;;;;;;2.08;1.80;;;18.20;56.80;;;;;;5076428;28;20564;-63
2023/05/20 05:55:38;;;;;;;1.63;1.52;;;18.20;56.70;;;;;;5076744;28;20651;-62
2023/05/20 05:58:04;;;;;;;1.77;1.67;;;18.30;56.80;;;;;;5075813;28;20178;-63
2023/05/20 06:00:29;;;;;;;2.55;1.70;;;18.20;56.70;;;;;;5076158;28;20205;-63
2023/05/20 06:02:55;;;;;;;2.38;1.42;;;18.20;56.70;;;;;;5076512;28;20178;-63
2023/05/20 06:05:20;;;;;;;1.52;1.42;;;18.20;57.30;;;;;;5075680;28;20185;-63
2023/05/20 06:07:46;;;;;;;1.60;1.50;;;18.20;56.70;;;;;;5076430;28;20637;-62
2023/05/20 06:10:11;;;;;;;1.60;1.50;;;18.20;56.60;;;;;;5076220;28;20259;-63
2023/05/20 06:12:37;;;;;;;2.10;1.40;;;18.30;56.70;;;;;;5075548;28;20649;-62
2023/05/20 06:15:03;;;;;;;2.10;1.33;;;18.20;56.60;;;;;;5076514;28;20174;-62
2023/05/20 06:17:28;;;;;;;1.70;1.58;;;18.20;56.60;;;;;;5076133;28;20177;-62
2023/05/20 06:19:54;;;;;;;2.03;1.60;;;18.30;56.60;;;;;;5075539;28;20556;-63
2023/05/20 06:22:19;;;;;;;1.45;1.35;;;18.30;56.60;;;;;;5075938;28;20171;-62
2023/05/20 06:24:45;;;;;;;1.60;1.50;;;18.30;56.60;;;;;;5076172;28;20533;-62
2023/05/20 06:27:11;;;;;;;1.40;1.30;;;18.30;56.60;;;;;;5075000;28;20254;-63
2023/05/20 06:29:36;;;;;;;2.10;1.63;;;18.30;56.60;;;;;;5076216;28;20548;-63
2023/05/20 06:32:02;;;;;;;1.40;1.30;;;18.30;56.60;;;;;;5076118;28;20587;-63
2023/05/20 06:34:27;;;;;;;1.45;1.35;;;18.30;56.60;;;;;;5075054;28;20633;-64
2023/05/20 06:36:56;;;;;;;1.67;1.30;;;18.30;56.60;;;;;;5075885;28;20714;-63
2023/05/20 06:39:21;;;;;;;1.50;1.40;;;18.30;57.20;;;;;;5074846;28;20182;-63
2023/05/20 06:41:47;;;;;;;1.95;1.30;;;18.30;56.60;;;;;;5075636;28;20175;-63
2023/05/20 06:44:13;;;;;;;3.22;1.30;;;18.30;56.50;;;;;;5075536;28;20501;-63
2023/05/20 06:46:38;;;;;;;1.52;1.40;;;18.40;56.60;;;;;;5074863;28;20181;-64
2023/05/20 06:49:04;;;;;;;1.83;1.50;;;18.40;56.60;;;;;;5075515;28;20178;-64
2023/05/20 06:51:29;;;;;;;1.88;1.73;;;18.40;56.60;;;;;;5075335;28;20171;-62
2023/05/20 06:53:57;;;;;;;1.38;1.23;;;18.40;56.60;;;;;;5074589;28;20186;-62
2023/05/20 06:56:23;;;;;;;1.85;1.35;;;18.40;56.60;;;;;;5075134;28;20206;-61
2023/05/20 06:58:48;;;;;;;2.25;1.70;;;18.40;56.50;;;;;;5074895;28;20186;-63
2023/05/20 07:01:14;;;;;;;3.53;1.67;;;18.40;56.50;;;;;;5074075;28;20217;-62
2023/05/20 07:03:40;;;;;;;2.05;1.85;;;18.40;56.50;;;;;;5075296;28;20177;-62
2023/05/20 07:06:05;;;;;;;1.48;1.38;;;18.50;56.60;;;;;;5074966;28;20548;-62
2023/05/20 07:08:31;;;;;;;1.52;1.42;;;18.50;56.80;;;;;;5074478;28;20528;-62
2023/05/20 07:10:56;;;;;;;1.73;1.40;;;18.60;56.70;;;;;;5074997;28;20196;-62
2023/05/20 07:13:22;;;;;;;3.88;1.60;;;18.60;56.80;;;;;;5074770;28;20284;-62
2023/05/20 07:15:48;;;;;;;1.45;1.35;;;18.60;56.70;;;;;;5074601;28;20217;-63
2023/05/20 07:18:14;;;;;;;3.03;1.73;;;18.70;56.80;;;;;;5075016;28;20225;-62
2023/05/20 07:20:40;;;;;;;1.95;1.70;;;18.70;56.80;;;;;;5075063;28;20217;-62
2023/05/20 07:23:05;;;;;;;2.50;1.40;;;18.70;56.80;;;;;;5073960;28;20170;-62
2023/05/20 07:25:31;;;;;;;2.65;1.45;;;18.80;56.90;;;;;;5074832;28;20170;-61
2023/05/20 07:27:57;;;;;;;2.65;1.40;;;18.80;56.70;;;;;;5074966;28;20175;-62
2023/05/20 07:30:22;;;;;;;3.13;1.70;;;18.70;56.60;;;;;;5073959;28;20179;-62
2023/05/20 07:32:48;;;;;;;1.50;1.40;;;18.70;56.60;;;;;;5074600;28;20163;-63
2023/05/20 07:35:13;;;;;;;1.80;1.48;;;18.70;56.50;;;;;;5074202;28;20316;-63
2023/05/20 07:37:39;;;;;;;4.05;1.67;;;18.70;56.50;;;;;;5074021;28;20167;-62
2023/05/20 07:40:06;;;;;;;2.58;1.75;;;18.70;56.50;;;;;;5074254;28;20225;-63
2023/05/20 07:42:32;;;;;;;2.75;1.50;;;18.70;56.50;;;;;;5074019;28;20217;-62
2023/05/20 07:44:57;;;;;;;2.50;1.58;;;18.70;56.50;;;;;;5074199;28;20644;-63
2023/05/20 07:47:23;;;;;;;2.45;1.60;;;18.70;56.50;;;;;;5074082;28;20218;-62
2023/05/20 07:49:48;;;;;;;3.60;1.73;;;18.80;56.50;;;;;;5073847;28;20290;-62
2023/05/20 07:52:14;;;;;;;1.92;1.35;;;18.80;56.50;;;;;;5074024;28;20174;-62
2023/05/20 07:54:40;;;;;;;1.80;1.60;;;18.80;56.40;;;;;;5074236;28;20167;-62
2023/05/20 07:57:05;;;;;;;3.97;1.52;;;18.80;56.40;;;;;;5073563;28;20190;-63
2023/05/20 07:59:31;;;;;;;1.95;1.70;;;18.80;56.30;;;;;;5074281;28;20167;-63
2023/05/20 08:01:57;;;;;;;2.75;1.90;;;18.90;57.00;;;;;;5074293;28;20645;-62
2023/05/20 08:04:22;;;;;;;2.63;1.60;;;18.80;56.30;;;;;;5073348;28;20265;-62
2023/05/20 08:06:48;;;;;;;3.78;1.55;;;18.90;56.30;;;;;;5073560;28;20186;-61
2023/05/20 08:09:14;;;;;;;3.15;1.60;;;18.90;56.30;;;;;;5072980;28;20167;-60
2023/05/20 08:11:39;;;;;;;3.38;1.70;;;19.00;56.30;;;;;;5072553;28;20182;-60
2023/05/20 08:14:05;;;;;;;2.38;1.80;;;19.00;56.30;;;;;;5072879;28;20200;-61
2023/05/20 08:16:30;;;;;;;2.20;1.88;;;19.00;56.20;;;;;;5073206;28;20170;-61
2023/05/20 08:18:56;;;;;;;3.33;1.67;;;19.00;56.20;;;;;;5072451;28;20291;-61
2023/05/20 08:21:21;;;;;;;4.38;1.63;;;19.10;56.30;;;;;;5072910;28;20255;-60
2023/05/20 08:23:47;;;;;;;2.25;1.73;;;19.10;56.30;;;;;;5073534;28;20253;-61
2023/05/20 08:26:12;;;;;;;2.67;1.60;;;19.10;56.20;;;;;;5072065;28;20190;-61
2023/05/20 08:28:38;;;;;;;2.28;1.70;;;19.10;56.30;;;;;;5073212;28;20313;-61
2023/05/20 08:31:04;;;;;;;1.65;1.55;;;19.10;56.20;;;;;;5073813;28;20186;-62
2023/05/20 08:33:29;;;;;;;2.55;1.48;;;19.10;56.30;;;;;;5072898;28;20170;-62
2023/05/20 08:35:55;;;;;;;2.25;2.03;;;19.20;56.30;;;;;;5073452;28;20284;-62
2023/05/20 08:38:21;;;;;;;1.50;1.40;;;19.20;56.30;;;;;;5072356;28;20166;-61
2023/05/20 08:40:51;;;;;;;3.03;1.50;;;19.20;56.20;;;;;;5072218;28;20195;-61
2023/05/20 08:43:16;;;;;;;1.48;1.38;;;19.20;56.20;;;;;;5072997;28;20171;-61
2023/05/20 08:45:42;;;;;;;1.90;1.50;;;19.20;56.20;;;;;;5072923;28;20170;-62
2023/05/20 08:48:07;;;;;;;3.20;1.52;;;19.30;56.30;;;;;;5071888;28;20170;-63
2023/05/20 08:50:33;;;;;;;1.85;1.27;;;19.30;56.20;;;;;;5074010;28;20189;-61
2023/05/20 08:52:59;;;;;;;5.03;1.75;;;19.30;56.20;;;;;;5073520;28;20181;-62
2023/05/20 08:55:25;;;;;;;2.67;1.55;;;19.30;56.20;;;;;;5072777;28;20653;-61
2023/05/20 08:57:53;;;;;;;1.65;1.42;;;19.30;56.10;;;;;;5082208;28;20628;-63
2023/05/20 09:00:19;;;;;;;3.45;1.65;;;19.30;56.10;;;;;;5092510;28;20202;-62
2023/05/20 09:02:45;;;;;;;2.28;1.58;;;19.30;56.10;;;;;;5093076;28;20640;-63
2023/05/20 09:05:10;;;;;;;1.85;1.50;;;19.30;56.00;;;;;;5092874;28;20227;-62
2023/05/20 09:07:36;;;;;;;2.80;1.40;;;19.30;56.10;;;;;;5072646;28;20178;-61
2023/05/20 09:10:02;;;;;;;2.25;1.60;;;19.30;56.00;;;;;;5072879;28;20224;-62
2023/05/20 09:12:27;;;;;;;1.63;1.52;;;19.30;56.00;;;;;;5072527;28;20182;-60
2023/05/20 09:14:53;;;;;;;1.38;1.27;;;19.40;55.90;;;;;;5072390;28;20178;-61
2023/05/20 09:17:22;;;;;;;1.50;1.40;;;19.40;55.90;;;;;;5072391;28;20178;-61
2023/05/20 09:19:49;;;;;;;3.35;1.48;;;19.40;55.80;;;;;;5073038;28;20240;-62
2023/05/20 09:22:20;;;;;;;2.25;1.70;;;19.40;55.90;;;;;;5071529;28;20171;-62
2023/05/20 09:24:47;;;;;;;2.45;1.58;;;19.40;55.90;;;;;;5051873;28;20175;-62
2023/05/20 09:27:13;;;;;;;3.58;1.60;;;19.40;55.70;;;;;;5052336;28;20183;-62
2023/05/20 09:29:38;;;;;;;1.98;1.88;;;19.50;55.70;;;;;;5051898;28;20175;-63
2023/05/20 09:32:04;;;;;;;2.67;1.60;;;19.50;55.70;;;;;;5052630;28;20172;-63
2023/05/20 09:34:30;;;;;;;1.63;1.52;;;19.50;55.70;;;;;;5051369;28;20171;-64
2023/05/20 09:36:55;;;;;;;3.10;2.20;;;19.50;55.70;;;;;;5051950;28;20648;-64
2023/05/20 09:39:24;;;;;;;1.90;1.77;;;19.60;55.80;;;;;;5052422;28;20177;-63
2023/05/20 09:42:11;;;;;;;8.20;4.70;;;19.60;55.60;;;;;;5051587;28;20220;-60
2023/05/20 09:44:36;;;;;;;5.95;4.63;;;19.60;56.60;;;;;;5052244;28;20175;-60
2023/05/20 09:47:02;;;;;;;6.75;5.25;;;19.80;56.20;;;;;;5051167;28;20205;-60
2023/05/20 09:49:27;;;;;;;23.77;6.75;;;20.00;55.70;;;;;;5049957;28;20175;-61
2023/05/20 09:51:53;;;;;;;11.98;6.03;;;20.20;55.80;;;;;;5051599;28;20183;-60
2023/05/20 09:54:19;;;;;;;13.35;6.53;;;20.20;55.60;;;;;;5051222;28;20220;-61
2023/05/20 09:56:45;;;;;;;18.75;6.22;;;20.20;55.70;;;;;;5056811;28;20175;-60
2023/05/20 09:59:11;;;;;;;15.23;5.70;;;20.10;55.70;;;;;;5092454;28;20174;-61
2023/05/20 10:01:36;;;;;;;8.95;5.45;;;19.90;55.90;;;;;;5091325;28;20675;-61
2023/05/20 10:04:04;;;;;;;8.35;5.78;;;19.80;56.00;;;;;;5090559;28;20177;-61
2023/05/20 10:06:49;;;;;;;11.07;5.40;;;19.90;56.10;;;;;;5091424;28;20717;-60
2023/05/20 10:09:31;;;;;;;8.65;5.25;;;19.80;56.10;;;;;;5091038;28;20674;-60
2023/05/20 10:12:22;;;;;;;8.07;5.07;;;19.80;56.10;;;;;;5090706;28;20275;-60
2023/05/20 10:15:17;;;;;;;6.55;4.85;;;19.90;56.10;;;;;;5091533;28;20249;-60
2023/05/20 10:18:20;;;;;;;7.07;5.00;;;19.90;55.90;;;;;;5091784;28;20663;-60
2023/05/20 10:20:49;;;;;;;9.15;5.15;;;19.90;55.90;;;;;;5092319;28;20699;-60
2023/05/20 10:23:26;;;;;;;8.07;4.97;;;19.90;55.80;;;;;;5081098;28;20206;-60
2023/05/20 10:25:53;;;;;;;9.23;4.88;;;20.00;55.80;;;;;;5071571;28;20664;-60
2023/05/20 10:28:33;;;;;;;6.53;4.45;;;19.90;55.70;;;;;;5071926;28;20721;-60
2023/05/20 10:30:58;;;;;;;6.43;4.55;;;19.90;55.70;;;;;;5072013;28;20220;-60
2023/05/20 10:33:28;;;;;;;7.72;5.13;;;19.90;55.70;;;;;;5072456;28;20687;-61
2023/05/20 10:35:57;;;;;;;9.13;4.63;;;19.90;55.70;;;;;;5074552;28;20232;-61
2023/05/20 10:38:23;;;;;;;7.40;4.82;;;19.90;55.70;;;;;;5074850;28;20197;-61
2023/05/20 10:40:48;;;;;;;5.68;4.40;;;20.00;55.70;;;;;;5075835;28;20661;-63
2023/05/20 10:43:34;;;;;;;6.47;4.25;;;20.00;55.80;;;;;;5075245;28;20178;-63
2023/05/20 10:46:00;;;;;;;4.70;3.78;;;19.90;55.70;;;;;;5074721;28;20691;-63
2023/05/20 10:48:30;;;;;;;7.72;4.38;;;19.90;55.70;;;;;;5075374;28;20167;-62
2023/05/20 10:51:09;;;;;;;8.45;4.47;;;19.90;55.70;;;;;;5075892;28;20204;-63
2023/05/20 10:53:39;;;;;;;6.72;4.22;;;19.90;55.80;;;;;;5073730;28;20208;-63
2023/05/20 10:56:05;;;;;;;6.53;4.00;;;20.00;55.70;;;;;;5074957;28;20175;-64
2023/05/20 10:58:38;;;;;;;6.70;3.90;;;20.00;55.50;;;;;;5074222;28;20515;-63
2023/05/20 11:01:04;;;;;;;7.82;3.75;;;20.10;55.40;;;;;;5073709;28;20289;-64
2023/05/20 11:03:29;;;;;;;7.03;3.75;;;20.10;55.40;;;;;;5075466;28;20673;-65
2023/05/20 11:05:55;;;;;;;6.30;3.65;;;20.10;55.30;;;;;;5073012;28;20562;-65
2023/05/20 11:08:21;;;;;;;9.57;4.15;;;20.10;55.30;;;;;;5072938;28;20178;-64
2023/05/20 11:10:46;;;;;;;6.28;3.65;;;20.20;55.20;;;;;;5074025;28;20182;-64
2023/05/20 11:13:14;;;;;;;3.72;3.38;;;20.20;55.10;;;;;;5073374;28;20648;-65
2023/05/20 11:15:40;;;;;;;4.85;3.40;;;20.10;55.20;;;;;;5072949;28;20182;-65
2023/05/20 11:18:05;;;;;;;8.32;3.85;;;20.10;55.20;;;;;;5073427;28;20309;-65
2023/05/20 11:20:33;;;;;;;6.28;3.25;;;20.00;55.20;;;;;;5073422;28;20202;-64
2023/05/20 11:22:59;;;;;;;4.90;2.65;;;20.00;55.20;;;;;;5074940;28;20699;-64
2023/05/20 11:25:27;;;;;;;4.22;3.40;;;20.00;55.20;;;;;;5074622;28;20182;-64
2023/05/20 11:27:52;;;;;;;5.30;3.42;;;20.00;55.10;;;;;;5074432;28;20243;-65
2023/05/20 11:30:19;;;;;;;3.65;3.30;;;20.10;55.00;;;;;;5074750;28;20174;-66
2023/05/20 11:33:00;;;;;;;3.67;2.70;;;20.10;54.90;;;;;;5073988;28;20241;-67
2023/05/20 11:35:29;;;;;;;3.17;2.75;;;20.10;54.90;;;;;;5072577;28;20234;-66
2023/05/20 11:38:01;;;;;;;10.00;3.63;;;20.10;54.90;;;;;;5073761;28;20232;-66
2023/05/20 11:40:27;;;;;;;4.03;3.03;;;20.20;54.80;;;;;;5074549;28;20245;-65
2023/05/20 11:42:56;;;;;;;3.13;2.65;;;20.20;54.70;;;;;;5074210;28;20617;-66
2023/05/20 11:45:22;;;;;;;5.25;2.70;;;20.10;54.60;;;;;;5074148;28;20607;-66
2023/05/20 11:48:03;;;;;;;3.05;2.67;;;20.20;54.60;;;;;;5074607;28;20220;-65
2023/05/20 11:50:38;;;;;;;3.40;2.50;;;20.20;54.40;;;;;;5073663;28;20190;-65
2023/05/20 11:53:04;;;;;;;3.70;2.30;;;20.20;54.40;;;;;;5074773;28;20177;-65
2023/05/20 11:55:31;;;;;;;5.90;2.63;;;20.20;54.40;;;;;;5074307;28;20636;-64
2023/05/20 11:57:57;;;;;;;2.90;2.70;;;20.20;54.30;;;;;;5073769;28;20182;-66
2023/05/20 12:00:23;;;;;;;3.33;2.85;;;20.20;54.30;;;;;;5073995;28;20214;-67
2023/05/20 12:02:48;;;;;;;2.92;2.22;;;20.30;54.20;;;;;;5073433;28;20232;-66
2023/05/20 12:05:15;;;;;;;3.90;2.42;;;20.40;54.20;;;;;;5073899;28;20171;-66
2023/05/20 12:07:40;;;;;;;3.05;2.22;;;20.30;54.10;;;;;;5074256;28;20178;-64
2023/05/20 12:10:07;;;;;;;4.25;2.80;;;20.30;54.80;;;;;;5073570;28;20178;-65
2023/05/20 12:12:32;;;;;;;3.08;2.17;;;20.30;54.20;;;;;;5074022;28;20648;-64
2023/05/20 12:14:58;;;;;;;3.60;2.72;;;20.30;54.30;;;;;;5072771;28;20206;-65
2023/05/20 12:17:23;;;;;;;2.90;2.35;;;20.30;54.30;;;;;;5072857;28;20171;-65
2023/05/20 12:19:49;;;;;;;2.20;2.00;;;20.20;54.30;;;;;;5074071;28;20190;-64
2023/05/20 12:22:14;;;;;;;2.47;2.28;;;20.20;54.20;;;;;;5073727;28;20206;-64
2023/05/20 12:24:40;;;;;;;2.28;2.13;;;20.20;54.20;;;;;;5072985;28;20629;-65
2023/05/20 12:27:06;;;;;;;3.40;2.40;;;20.20;54.20;;;;;;5073695;28;20178;-65
2023/05/20 12:29:32;;;;;;;1.92;1.83;;;20.20;54.20;;;;;;5073806;28;20257;-65
2023/05/20 12:31:58;;;;;;;2.83;2.03;;;20.20;54.20;;;;;;5072958;28;20316;-66
2023/05/20 12:34:23;;;;;;;2.15;2.00;;;20.20;54.20;;;;;;5073118;28;20383;-66
2023/05/20 12:36:49;;;;;;;2.42;1.90;;;20.20;54.20;;;;;;5073557;28;20181;-66
2023/05/20 12:39:17;;;;;;;2.05;1.85;;;20.30;54.20;;;;;;5071500;28;20182;-66
2023/05/20 12:41:42;;;;;;;2.15;1.83;;;20.30;54.10;;;;;;5073293;28;20580;-65